Time;durP1;ratioP1;P1;durP2;ratioP2;P2;SDS_P1;SDS_P2;PMS_P1;PMS_P2;Temp;Humidity;BMP_temperature;BMP_pressure;BME280_temperature;BME280_humidity;BME280_pressure;Samples;Min_cycle;Max_cycle;Signal;HPM_P1;HPM_P2
2021/12/07 00:00:57;;;;;;;48.70;20.73;;;;;;;-0.99;79.12;98093.34;5047755;28;20032;-65
2021/12/07 00:03:23;;;;;;;49.00;21.88;;;;;;;-0.96;79.14;98096.38;5048344;28;20082;-65
2021/12/07 00:05:50;;;;;;;46.03;21.40;;;;;;;-0.96;79.28;98100.97;5047406;28;20033;-65
2021/12/07 00:08:16;;;;;;;41.38;19.83;;;;;;;-0.92;79.17;98104.84;5048198;28;20059;-64
2021/12/07 00:10:43;;;;;;;37.80;17.73;;;;;;;-0.89;79.42;98101.69;5045867;28;20028;-65
2021/12/07 00:13:10;;;;;;;42.33;19.55;;;;;;;-0.91;79.14;98101.09;5048137;28;20025;-65
2021/12/07 00:15:36;;;;;;;41.97;19.63;;;;;;;-0.92;79.29;98104.84;5048273;28;20024;-65
2021/12/07 00:18:03;;;;;;;40.58;18.73;;;;;;;-0.95;79.20;98097.22;5047658;28;20132;-65
2021/12/07 00:20:29;;;;;;;39.47;18.02;;;;;;;-0.97;78.89;98105.50;5041016;28;20090;-65
2021/12/07 00:22:57;;;;;;;41.17;19.65;;;;;;;-1.05;79.13;98097.78;5037229;28;20465;-64
2021/12/07 00:25:23;;;;;;;42.28;19.17;;;;;;;-1.10;78.98;98106.53;5036374;28;20159;-64
2021/12/07 00:27:49;;;;;;;40.35;19.23;;;;;;;-1.10;78.99;98111.91;5038007;28;20025;-64
2021/12/07 00:30:15;;;;;;;52.25;21.83;;;;;;;-1.12;79.05;98115.88;5033037;28;20025;-64
2021/12/07 00:32:47;;;;;;;43.40;19.52;;;;;;;-1.07;79.37;98110.66;5037981;28;20046;-65
2021/12/07 00:37:45;;;;;;;35.78;16.35;;;;;;;-1.03;79.07;98101.06;5038709;28;20400;-64
2021/12/07 00:40:13;;;;;;;43.70;19.80;;;;;;;-1.07;78.84;98110.66;5037293;28;20104;-65
2021/12/07 00:42:39;;;;;;;41.55;18.48;;;;;;;-1.12;78.97;98116.69;5037312;28;20026;-65
2021/12/07 00:45:05;;;;;;;44.35;20.15;;;;;;;-1.16;78.69;98117.41;5038725;28;20661;-65
2021/12/07 00:47:31;;;;;;;45.40;20.33;;;;;;;-1.16;78.76;98112.00;5039889;28;20091;-65
2021/12/07 00:49:57;;;;;;;38.70;17.10;;;;;;;-1.13;78.88;98109.69;5036704;28;20049;-64
2021/12/07 00:52:23;;;;;;;44.45;19.45;;;;;;;-1.12;78.82;98111.31;5037746;28;20107;-64
2021/12/07 00:54:49;;;;;;;40.63;20.00;;;;;;;-1.12;78.79;98114.00;5038719;28;20021;-64
2021/12/07 00:57:14;;;;;;;39.55;18.67;;;;;;;-1.11;78.92;98109.47;5038988;28;20037;-64
2021/12/07 00:59:40;;;;;;;36.50;18.05;;;;;;;-1.11;78.71;98104.88;5035544;28;20115;-65
2021/12/07 01:02:05;;;;;;;37.25;18.13;;;;;;;-1.13;78.96;98108.88;5036257;28;20090;-64
2021/12/07 01:04:31;;;;;;;36.67;17.00;;;;;;;-1.12;78.91;98107.81;5039736;28;20398;-65
2021/12/07 01:07:05;;;;;;;45.25;20.73;;;;;;;-1.15;78.70;98110.97;5039231;28;20025;-65
2021/12/07 01:24:39;;;;;;;44.63;21.17;;;;;;;-1.16;78.83;98102.06;5039710;28;20063;-64
2021/12/07 01:26:07;;;;;;;51.83;21.52;;;;;;;-1.43;78.53;98083.59;5042155;28;20040;-64
2021/12/07 01:28:38;;;;;;;38.95;18.48;;;;;;;-1.41;79.35;98083.34;5032783;28;20029;-64
2021/12/07 01:31:26;;;;;;;40.92;18.02;;;;;;;-1.39;79.19;98070.50;5048535;28;20082;-65
2021/12/07 01:34:15;;;;;;;47.95;21.13;;;;;;;-1.40;79.24;98072.38;5052218;28;20576;-64
2021/12/07 01:37:06;;;;;;;38.63;15.90;;;;;;;-1.41;79.17;98069.91;5052236;28;20039;-65
2021/12/07 01:47:51;;;;;;;39.00;17.60;;;;;;;-1.50;79.46;98080.16;5032668;28;20107;-64
2021/12/07 02:00:50;;;;;;;35.03;16.50;;;;;;;-1.49;79.03;98060.28;5038534;28;20029;-65
2021/12/07 02:03:16;;;;;;;39.90;17.75;;;;;;;-1.47;78.83;98063.56;5047316;28;20029;-65
2021/12/07 02:05:42;;;;;;;37.67;17.33;;;;;;;-1.44;79.31;98059.63;5047464;28;20036;-65
2021/12/07 02:08:08;;;;;;;40.55;18.15;;;;;;;-1.41;79.39;98068.06;5040381;28;20091;-64
2021/12/07 02:10:33;;;;;;;37.15;17.27;;;;;;;-1.36;79.59;98067.34;5043802;28;20059;-65
2021/12/07 02:13:07;;;;;;;42.35;19.48;;;;;;;-1.37;79.60;98066.53;5045596;28;20021;-65
2021/12/07 02:15:34;;;;;;;34.92;16.25;;;;;;;-1.36;79.26;98060.13;5037028;28;20486;-64
2021/12/07 02:18:01;;;;;;;36.55;17.08;;;;;;;-1.39;79.29;98057.88;5032955;28;20030;-65
2021/12/07 02:20:29;;;;;;;34.83;17.52;;;;;;;-1.34;79.18;98062.56;5032420;28;20039;-65
2021/12/07 02:22:55;;;;;;;35.53;17.15;;;;;;;-1.29;79.27;98059.22;5032395;28;20105;-65
2021/12/07 02:25:20;;;;;;;39.30;18.90;;;;;;;-1.30;78.96;98052.19;5032681;28;20029;-64
2021/12/07 02:27:48;;;;;;;38.67;17.85;;;;;;;-1.26;79.44;98054.19;5032557;28;20036;-64
2021/12/07 02:30:19;;;;;;;38.65;18.17;;;;;;;-1.25;79.17;98045.06;5064738;28;20036;-65
2021/12/07 02:32:46;;;;;;;43.17;17.38;;;;;;;-1.23;79.23;98061.78;5052320;28;20083;-65
2021/12/07 02:35:15;;;;;;;37.85;15.10;;;;;;;-1.23;79.02;98051.03;5052467;28;20029;-64
2021/12/07 02:37:41;;;;;;;45.70;17.13;;;;;;;-1.23;78.83;98053.72;5051037;28;20032;-64
2021/12/07 02:40:08;;;;;;;47.40;19.23;;;;;;;-1.18;78.92;98052.22;5051860;28;20029;-64
2021/12/07 02:42:33;;;;;;;44.95;19.95;;;;;;;-1.15;78.90;98054.44;5052266;28;20028;-65
2021/12/07 02:44:59;;;;;;;40.10;17.63;;;;;;;-1.10;78.88;98059.97;5050662;28;20043;-64
2021/12/07 02:47:25;;;;;;;37.13;17.92;;;;;;;-1.14;78.67;98056.91;5044114;28;20025;-64
2021/12/07 02:49:51;;;;;;;37.72;17.05;;;;;;;-1.15;78.89;98055.25;5043549;28;20094;-64
2021/12/07 02:52:16;;;;;;;34.85;16.80;;;;;;;-1.16;78.60;98053.63;5041306;28;20037;-64
2021/12/07 02:54:45;;;;;;;35.00;15.32;;;;;;;-1.22;78.27;98054.53;5037545;28;20037;-64
2021/12/07 02:57:12;;;;;;;40.90;17.23;;;;;;;-1.27;78.22;98054.41;5034550;28;20041;-64
2021/12/07 02:59:48;;;;;;;40.65;18.27;;;;;;;-1.33;78.11;98053.44;5037530;28;20040;-63
2021/12/07 03:02:16;;;;;;;47.28;20.02;;;;;;;-1.36;78.65;98048.53;5039687;28;20094;-63
2021/12/07 03:04:52;;;;;;;42.70;19.15;;;;;;;-1.35;78.39;98042.09;5038762;28;20029;-64
2021/12/07 03:07:38;;;;;;;37.08;17.75;;;;;;;-1.33;78.51;98039.19;5040224;28;20017;-63
2021/12/07 03:26:23;;;;;;;37.75;17.20;;;;;;;-1.46;78.82;98059.84;5038862;28;20539;-63
2021/12/07 03:28:51;;;;;;;43.28;19.60;;;;;;;-1.48;78.73;98048.50;5038230;28;20032;-63
2021/12/07 03:31:18;;;;;;;39.63;17.50;;;;;;;-1.45;78.57;98068.75;5040009;28;20025;-63
2021/12/07 03:33:44;;;;;;;41.15;18.95;;;;;;;-1.47;78.39;98073.53;5038495;28;20064;-63
2021/12/07 03:36:12;;;;;;;38.13;18.25;;;;;;;-1.48;78.79;98069.19;5040877;28;20466;-64
2021/12/07 03:38:38;;;;;;;37.45;16.60;;;;;;;-1.52;78.44;98066.97;5042858;28;20025;-64
2021/12/07 03:41:07;;;;;;;42.03;18.17;;;;;;;-1.58;78.51;98075.94;5041624;28;20025;-63
2021/12/07 03:43:33;;;;;;;45.05;19.92;;;;;;;-1.62;78.51;98079.28;5042271;28;20131;-63
2021/12/07 03:46:00;;;;;;;40.83;18.02;;;;;;;-1.63;78.63;98072.28;5042942;28;20025;-63
2021/12/07 03:48:26;;;;;;;42.53;18.42;;;;;;;-1.58;78.49;98077.78;5041551;28;20033;-63
2021/12/07 03:50:52;;;;;;;40.05;17.10;;;;;;;-1.54;78.75;98071.75;5043087;28;20027;-63
2021/12/07 03:53:17;;;;;;;38.83;17.35;;;;;;;-1.54;78.46;98070.91;5045763;28;20139;-63
2021/12/07 03:55:44;;;;;;;38.45;16.42;;;;;;;-1.49;78.80;98068.38;5046134;28;20095;-63
2021/12/07 03:58:10;;;;;;;46.75;19.95;;;;;;;-1.44;78.61;98078.47;5045773;28;20036;-63
2021/12/07 04:00:39;;;;;;;46.92;19.75;;;;;;;-1.42;79.10;98087.09;5046742;28;20021;-63
2021/12/07 04:03:08;;;;;;;47.20;21.05;;;;;;;-1.41;78.81;98086.88;5046683;28;20026;-63
2021/12/07 04:05:36;;;;;;;44.45;21.33;;;;;;;-1.37;78.78;98093.44;5044829;28;20035;-64
2021/12/07 04:08:03;;;;;;;40.10;18.05;;;;;;;-1.32;78.91;98092.75;5040957;28;20083;-63
2021/12/07 04:10:28;;;;;;;41.83;19.02;;;;;;;-1.31;78.91;98098.97;5048377;28;20029;-63
2021/12/07 04:12:54;;;;;;;43.78;19.10;;;;;;;-1.30;78.89;98097.94;5046987;28;20023;-63
2021/12/07 04:15:20;;;;;;;41.35;18.40;;;;;;;-1.27;78.77;98092.91;5049486;28;20060;-64
2021/12/07 04:17:46;;;;;;;46.63;19.77;;;;;;;-1.26;78.77;98101.81;5047275;28;20041;-63
2021/12/07 04:20:15;;;;;;;43.20;18.63;;;;;;;-1.24;78.69;98092.44;5039970;28;20497;-63
2021/12/07 04:22:41;;;;;;;54.65;22.25;;;;;;;-1.23;78.68;98093.28;5048956;28;20099;-63
2021/12/07 04:25:09;;;;;;;47.00;18.98;;;;;;;-1.23;78.61;98093.28;5040961;28;20024;-64
2021/12/07 04:27:38;;;;;;;43.00;19.60;;;;;;;-1.26;78.69;98083.78;5047690;28;20017;-63
2021/12/07 04:30:08;;;;;;;48.22;18.92;;;;;;;-1.27;78.52;98086.72;5045799;28;20043;-63
2021/12/07 04:32:33;;;;;;;52.45;22.98;;;;;;;-1.35;78.39;98088.66;5045509;28;20425;-63
2021/12/07 04:34:59;;;;;;;61.42;26.15;;;;;;;-1.32;78.68;98100.03;5039570;28;20428;-63
2021/12/07 04:37:24;;;;;;;57.88;24.50;;;;;;;-1.29;78.68;98096.88;5037248;28;20370;-63
2021/12/07 04:39:50;;;;;;;57.70;26.60;;;;;;;-1.27;78.68;98098.28;5039122;28;20024;-64
2021/12/07 04:42:15;;;;;;;52.40;23.48;;;;;;;-1.23;78.94;98095.97;5041225;28;20393;-63
2021/12/07 04:44:49;;;;;;;65.65;34.20;;;;;;;-1.21;79.27;98091.16;5043711;28;20100;-64
2021/12/07 04:47:22;;;;;;;54.38;22.10;;;;;;;-1.20;78.56;98095.47;5042503;28;20030;-64
2021/12/07 04:57:49;;;;;;;55.58;25.98;;;;;;;-1.04;79.13;98091.34;5042287;28;20451;-63
2021/12/07 05:00:24;;;;;;;54.33;23.48;;;;;;;-1.03;78.39;98089.47;5043142;28;20033;-63
2021/12/07 05:03:00;;;;;;;47.10;20.42;;;;;;;-1.03;78.89;98084.91;5043521;28;20128;-63
2021/12/07 05:05:32;;;;;;;52.15;21.20;;;;;;;-1.02;78.68;98088.41;5043457;28;20059;-63
2021/12/07 05:08:01;;;;;;;58.75;24.08;;;;;;;-1.00;78.51;98084.44;5042042;28;20059;-63
2021/12/07 05:10:38;;;;;;;58.28;21.77;;;;;;;-0.97;78.79;98081.28;5039906;28;20038;-64
2021/12/07 05:13:25;;;;;;;52.40;22.92;;;;;;;-0.91;78.55;98082.25;5042602;28;20078;-64
2021/12/07 05:18:37;;;;;;;56.28;23.58;;;;;;;-0.88;78.35;98080.94;5038388;28;20036;-63
2021/12/07 05:24:03;;;;;;;63.65;24.83;;;;;;;-0.88;78.31;98075.56;5037736;28;20103;-63
2021/12/07 05:40:17;;;;;;;81.85;29.30;;;;;;;-0.96;78.69;98074.03;5041558;28;20406;-64
2021/12/07 05:42:42;;;;;;;95.00;35.25;;;;;;;-0.94;78.54;98071.94;5044051;28;20032;-64
2021/12/07 05:45:10;;;;;;;82.47;32.25;;;;;;;-0.86;78.84;98073.47;5044391;28;20397;-64
2021/12/07 05:47:36;;;;;;;74.63;30.67;;;;;;;-0.82;78.65;98075.47;5065956;28;20040;-63
2021/12/07 05:50:04;;;;;;;65.65;25.80;;;;;;;-0.81;78.82;98073.59;5041735;28;20025;-64
2021/12/07 05:52:30;;;;;;;64.28;24.23;;;;;;;-0.77;78.54;98080.97;5041742;28;20025;-64
2021/12/07 05:54:55;;;;;;;68.00;25.65;;;;;;;-0.78;78.76;98084.72;5042884;28;20056;-64
2021/12/07 05:57:21;;;;;;;61.28;24.95;;;;;;;-0.75;78.70;98083.44;5036843;28;20037;-64
2021/12/07 05:59:46;;;;;;;72.75;26.27;;;;;;;-0.74;78.13;98085.09;5031932;28;20033;-64
2021/12/07 06:02:12;;;;;;;64.85;25.50;;;;;;;-0.71;78.33;98081.94;5032527;28;20028;-64
2021/12/07 06:04:37;;;;;;;80.13;29.30;;;;;;;-0.77;77.74;98086.34;5032485;28;20033;-63
2021/12/07 06:07:04;;;;;;;98.20;34.83;;;;;;;-0.78;78.53;98090.09;5032391;28;20133;-63
2021/12/07 06:09:30;;;;;;;107.28;32.90;;;;;;;-0.75;78.56;98096.91;5031763;28;20021;-63
2021/12/07 06:11:56;;;;;;;190.70;51.22;;;;;;;-0.69;78.73;98092.47;5032028;28;20026;-64
2021/12/07 06:14:28;;;;;;;373.02;94.00;;;;;;;-0.66;78.43;98098.22;5032274;28;20026;-63
2021/12/07 06:16:54;;;;;;;263.23;64.32;;;;;;;-0.65;78.77;98090.94;5032036;28;20060;-64
2021/12/07 06:19:19;;;;;;;231.25;59.17;;;;;;;-0.63;78.64;98094.22;5031814;28;20367;-63
2021/12/07 06:21:44;;;;;;;161.18;41.45;;;;;;;-0.59;78.39;98092.72;5032122;28;20484;-64
2021/12/07 06:24:10;;;;;;;128.30;40.47;;;;;;;-0.55;78.78;98091.19;5031926;28;20087;-63
2021/12/07 06:26:35;;;;;;;74.85;25.50;;;;;;;-0.54;78.83;98098.22;5031797;28;20726;-63
2021/12/07 06:29:02;;;;;;;79.03;25.23;;;;;;;-0.54;78.49;98105.47;5030064;28;20036;-64
2021/12/07 06:31:27;;;;;;;85.03;31.50;;;;;;;-0.62;78.32;98102.09;5030717;28;20470;-64
2021/12/07 06:33:53;;;;;;;95.85;32.03;;;;;;;-0.68;78.39;98105.72;5031567;28;20063;-64
2021/12/07 06:36:18;;;;;;;94.75;30.58;;;;;;;-0.73;77.88;98105.56;5031876;28;20083;-63
2021/12/07 06:38:45;;;;;;;92.18;30.08;;;;;;;-0.76;78.10;98103.34;5047811;28;20033;-64
2021/12/07 06:41:10;;;;;;;99.80;32.05;;;;;;;-0.81;78.21;98101.31;5051849;28;20056;-64
2021/12/07 06:43:36;;;;;;;125.15;42.60;;;;;;;-0.77;78.25;98104.41;5051291;28;20068;-64
2021/12/07 06:46:02;;;;;;;96.57;35.03;;;;;;;-0.72;78.31;98112.59;5036562;28;20029;-63
2021/12/07 06:48:27;;;;;;;101.15;31.90;;;;;;;-0.68;78.78;98112.94;5034105;28;20394;-64
2021/12/07 06:50:53;;;;;;;78.15;26.65;;;;;;;-0.67;78.08;98118.13;5036934;28;20603;-64
2021/12/07 06:53:19;;;;;;;91.80;34.33;;;;;;;-0.69;78.43;98116.69;5051743;28;20037;-63
2021/12/07 06:55:45;;;;;;;88.80;33.53;;;;;;;-0.68;78.63;98119.19;5051089;28;20563;-64
2021/12/07 06:58:10;;;;;;;116.32;44.42;;;;;;;-0.64;78.26;98125.75;5049982;28;20478;-63
2021/12/07 07:00:37;;;;;;;137.30;48.58;;;;;;;-0.60;78.53;98128.78;5050521;28;20485;-63
2021/12/07 07:03:03;;;;;;;189.82;85.82;;;;;;;-0.57;78.57;98122.94;5051034;28;20033;-64
2021/12/07 07:05:28;;;;;;;144.63;49.80;;;;;;;-0.54;78.29;98127.03;5032375;28;20025;-63
2021/12/07 07:07:54;;;;;;;138.23;61.85;;;;;;;-0.49;78.17;98127.16;5030837;28;20095;-64
2021/12/07 07:10:20;;;;;;;94.57;37.28;;;;;;;-0.50;78.55;98131.72;5030404;28;20488;-63
2021/12/07 07:12:47;;;;;;;98.07;35.20;;;;;;;-0.50;78.17;98130.91;5030535;28;20057;-63
2021/12/07 07:15:13;;;;;;;76.35;30.27;;;;;;;-0.49;78.59;98133.38;5029498;28;20401;-64
2021/12/07 07:17:39;;;;;;;73.68;29.73;;;;;;;-0.45;78.00;98133.72;5030159;28;20026;-63
2021/12/07 07:20:07;;;;;;;80.80;32.40;;;;;;;-0.44;78.40;98129.16;5030468;28;20037;-64
2021/12/07 07:22:33;;;;;;;73.20;29.73;;;;;;;-0.45;78.50;98136.41;5030805;28;20032;-64
2021/12/07 07:24:59;;;;;;;96.18;40.53;;;;;;;-0.44;78.30;98129.16;5030701;28;20018;-63
2021/12/07 07:27:24;;;;;;;137.25;62.55;;;;;;;-0.45;78.02;98125.63;5030530;28;20745;-63
2021/12/07 07:29:50;;;;;;;70.93;32.30;;;;;;;-0.44;77.84;98124.59;5028682;28;20029;-63
2021/12/07 07:32:16;;;;;;;61.83;26.10;;;;;;;-0.41;77.99;98126.81;5032680;28;20038;-64
2021/12/07 07:34:41;;;;;;;60.85;25.30;;;;;;;-0.36;78.16;98126.94;5043652;28;20060;-63
2021/12/07 07:37:07;;;;;;;59.92;25.73;;;;;;;-0.32;77.88;98129.97;5050175;28;20025;-64
2021/12/07 07:39:34;;;;;;;58.65;25.15;;;;;;;-0.29;77.80;98131.41;5049946;28;20044;-64
2021/12/07 07:42:00;;;;;;;61.33;25.10;;;;;;;-0.31;78.27;98129.75;5049949;28;20036;-63
2021/12/07 07:44:25;;;;;;;60.38;24.90;;;;;;;-0.34;77.83;98130.22;5047579;28;20028;-64
2021/12/07 07:46:51;;;;;;;58.50;25.38;;;;;;;-0.34;77.96;98137.47;5030090;28;20473;-63
2021/12/07 07:49:16;;;;;;;65.47;26.63;;;;;;;-0.34;77.81;98134.78;5030278;28;20060;-63
2021/12/07 07:51:42;;;;;;;69.60;28.98;;;;;;;-0.32;77.95;98133.50;5030173;28;20029;-63
2021/12/07 07:54:08;;;;;;;71.45;29.35;;;;;;;-0.30;77.98;98133.25;5028985;28;20040;-63
2021/12/07 07:56:34;;;;;;;71.05;31.30;;;;;;;-0.32;77.78;98129.97;5029660;28;20029;-64
2021/12/07 07:59:00;;;;;;;64.85;28.95;;;;;;;-0.33;77.70;98139.13;5029556;28;20068;-64
2021/12/07 08:01:30;;;;;;;69.50;30.55;;;;;;;-0.35;77.75;98136.66;5030209;28;20022;-64
2021/12/07 08:03:57;;;;;;;70.80;29.55;;;;;;;-0.29;77.43;98136.78;5029826;28;20033;-64
2021/12/07 08:06:23;;;;;;;69.50;30.20;;;;;;;-0.27;77.58;98132.78;5034009;28;20035;-63
2021/12/07 08:08:48;;;;;;;61.50;29.65;;;;;;;-0.27;77.64;98134.69;5049177;28;20017;-63
2021/12/07 08:11:14;;;;;;;69.57;30.70;;;;;;;-0.21;78.07;98133.75;5046406;28;20057;-63
2021/12/07 08:13:41;;;;;;;67.85;28.73;;;;;;;-0.16;78.05;98129.28;5033713;28;20029;-64
2021/12/07 08:16:15;;;;;;;66.05;28.63;;;;;;;-0.11;77.77;98141.25;5030517;28;20396;-63
2021/12/07 08:18:45;;;;;;;75.97;33.25;;;;;;;-0.12;77.40;98140.41;5025516;28;20116;-64
2021/12/07 08:21:11;;;;;;;73.43;33.85;;;;;;;-0.09;77.75;98144.53;5049707;28;20461;-63
2021/12/07 08:23:36;;;;;;;71.10;31.52;;;;;;;-0.05;77.80;98145.72;5049679;28;20029;-63
2021/12/07 08:26:03;;;;;;;75.75;31.98;;;;;;;-0.03;77.96;98140.91;5048893;28;20466;-63
2021/12/07 08:28:28;;;;;;;72.35;31.77;;;;;;;0.01;77.47;98143.94;5044966;28;20029;-63
2021/12/07 08:30:54;;;;;;;61.95;28.77;;;;;;;0.01;77.59;98155.53;5049031;28;20242;-64
2021/12/07 08:33:19;;;;;;;65.55;28.55;;;;;;;0.04;77.14;98152.38;5049810;28;20390;-63
2021/12/07 08:35:45;;;;;;;60.15;25.52;;;;;;;0.06;77.25;98152.16;5049706;28;20913;-63
2021/12/07 08:38:10;;;;;;;59.47;24.85;;;;;;;0.04;77.14;98159.66;5049859;28;20045;-64
2021/12/07 08:40:39;;;;;;;60.65;25.23;;;;;;;0.03;77.43;98164.22;5039111;28;20030;-65
2021/12/07 08:43:06;;;;;;;64.18;24.35;;;;;;;-0.01;77.58;98166.56;5036439;28;20029;-63
2021/12/07 08:45:31;;;;;;;63.75;26.30;;;;;;;-0.01;77.13;98168.44;5039638;28;20036;-64
2021/12/07 08:47:58;;;;;;;62.85;25.25;;;;;;;-0.01;76.79;98166.56;5036782;28;20491;-63
2021/12/07 08:50:29;;;;;;;56.60;24.38;;;;;;;0.02;77.44;98162.56;5047796;28;20025;-63
2021/12/07 08:53:02;;;;;;;59.10;24.98;;;;;;;0.06;77.45;98166.44;5039951;28;20116;-64
2021/12/07 09:00:58;;;;;;;68.40;28.05;;;;;;;0.07;76.93;98157.28;5036931;28;20166;-64
2021/12/07 09:03:24;;;;;;;74.15;31.10;;;;;;;0.08;76.80;98158.13;5038846;28;20112;-63
2021/12/07 09:05:49;;;;;;;72.28;30.88;;;;;;;0.10;77.55;98156.00;5029471;28;20026;-63
2021/12/07 09:08:16;;;;;;;62.78;26.20;;;;;;;0.18;76.87;98160.22;5038389;28;20037;-64
2021/12/07 09:10:41;;;;;;;69.45;29.20;;;;;;;0.19;77.03;98159.16;5036662;28;20099;-65
2021/12/07 09:13:08;;;;;;;79.63;29.80;;;;;;;0.21;76.56;98157.06;5048195;28;20389;-65
2021/12/07 09:15:34;;;;;;;75.45;29.92;;;;;;;0.22;76.77;98158.69;5048030;28;20033;-64
2021/12/07 09:17:59;;;;;;;96.28;40.10;;;;;;;0.27;77.24;98153.41;5036567;28;20057;-64
2021/12/07 09:20:25;;;;;;;75.43;30.50;;;;;;;0.32;77.09;98152.69;5031831;28;20061;-64
2021/12/07 09:22:50;;;;;;;97.43;40.50;;;;;;;0.30;76.60;98144.84;5048787;28;20040;-65
2021/12/07 09:25:17;;;;;;;83.78;36.10;;;;;;;0.34;76.90;98145.19;5044713;28;20104;-64
2021/12/07 09:27:43;;;;;;;129.77;53.92;;;;;;;0.37;76.95;98145.56;5043830;28;20037;-64
2021/12/07 09:30:12;;;;;;;111.32;46.28;;;;;;;0.40;76.70;98144.25;5044393;28;20036;-62
2021/12/07 09:32:37;;;;;;;107.60;47.30;;;;;;;0.43;77.05;98138.38;5046390;28;20029;-63
2021/12/07 09:35:06;;;;;;;110.55;49.20;;;;;;;0.44;76.90;98135.44;5047108;28;20029;-63
2021/12/07 09:37:31;;;;;;;86.50;38.80;;;;;;;0.39;76.87;98142.59;5033299;28;20048;-63
2021/12/07 09:39:57;;;;;;;100.38;42.63;;;;;;;0.39;76.86;98139.91;5033119;28;20030;-63
2021/12/07 09:42:23;;;;;;;87.95;37.22;;;;;;;0.36;76.61;98134.97;5035707;28;20374;-65
2021/12/07 09:44:48;;;;;;;98.63;41.13;;;;;;;0.38;76.68;98140.97;5042767;28;20025;-64
2021/12/07 09:47:14;;;;;;;81.97;32.03;;;;;;;0.37;76.27;98144.72;5050994;28;20040;-63
2021/12/07 09:49:39;;;;;;;78.93;31.83;;;;;;;0.35;76.33;98152.22;5033850;28;20416;-64
2021/12/07 09:52:05;;;;;;;81.75;32.25;;;;;;;0.29;76.42;98154.81;5032437;28;20076;-64
2021/12/07 09:54:31;;;;;;;75.30;29.05;;;;;;;0.29;76.47;98148.59;5035560;28;20029;-63
2021/12/07 09:56:56;;;;;;;74.50;30.02;;;;;;;0.30;76.15;98144.84;5039368;28;20035;-64
2021/12/07 09:59:22;;;;;;;72.05;29.58;;;;;;;0.32;76.28;98141.91;5051349;28;20166;-63
2021/12/07 10:01:47;;;;;;;114.90;44.05;;;;;;;0.36;76.58;98143.06;5032761;28;20152;-64
2021/12/07 10:04:13;;;;;;;74.20;29.83;;;;;;;0.35;76.54;98134.19;5032415;28;20071;-65
2021/12/07 10:06:38;;;;;;;90.10;34.90;;;;;;;0.33;75.88;98133.59;5034518;28;20402;-63
2021/12/07 10:09:05;;;;;;;103.57;34.65;;;;;;;0.33;75.91;98139.00;5031463;28;20451;-64
2021/12/07 10:11:31;;;;;;;77.32;31.45;;;;;;;0.33;75.90;98140.84;5032273;28;20014;-64
2021/12/07 10:13:57;;;;;;;89.90;33.00;;;;;;;0.35;76.19;98133.34;5032498;28;20021;-64
2021/12/07 10:16:23;;;;;;;96.47;35.00;;;;;;;0.38;76.36;98151.75;5032448;28;20033;-65
2021/12/07 10:18:49;;;;;;;98.70;36.05;;;;;;;0.38;75.89;98141.78;5030512;28;20026;-64
2021/12/07 10:21:25;;;;;;;85.05;31.95;;;;;;;0.35;76.32;98144.13;5032161;28;20033;-65
2021/12/07 10:24:00;;;;;;;80.78;31.75;;;;;;;0.32;76.40;98129.25;5031551;28;20063;-65
2021/12/07 10:26:31;;;;;;;93.82;33.97;;;;;;;0.36;75.79;98132.28;5050989;28;20017;-64
2021/12/07 10:29:00;;;;;;;97.93;36.45;;;;;;;0.39;76.20;98127.25;5052520;28;20043;-65
2021/12/07 10:31:51;;;;;;;84.90;35.33;;;;;;;0.42;76.30;98128.63;5050967;28;20059;-66
2021/12/07 10:34:23;;;;;;;77.72;33.25;;;;;;;0.43;76.08;98122.19;5043815;28;20638;-65
2021/12/07 10:36:56;;;;;;;76.18;31.15;;;;;;;0.40;76.18;98130.75;5051753;28;20040;-65
2021/12/07 10:39:27;;;;;;;66.50;28.45;;;;;;;0.38;75.72;98125.59;5051393;28;20046;-65
2021/12/07 10:42:03;;;;;;;78.32;32.90;;;;;;;0.36;76.12;98122.31;5050102;28;20500;-66
2021/12/07 10:44:31;;;;;;;73.50;31.45;;;;;;;0.33;75.72;98124.66;5049464;28;20021;-67
2021/12/07 10:47:03;;;;;;;63.90;26.80;;;;;;;0.35;76.22;98128.78;5049669;28;20033;-63
2021/12/07 10:49:32;;;;;;;68.97;27.90;;;;;;;0.36;76.16;98132.28;5050992;28;20043;-65
2021/12/07 10:52:13;;;;;;;70.75;28.35;;;;;;;0.40;75.88;98130.75;5050595;28;20432;-67
2021/12/07 10:54:41;;;;;;;62.05;26.20;;;;;;;0.43;76.21;98133.78;5048574;28;20120;-65
2021/12/07 10:57:11;;;;;;;63.05;26.65;;;;;;;0.42;76.19;98134.84;5048963;28;20041;-64
2021/12/07 10:59:37;;;;;;;70.65;31.70;;;;;;;0.42;75.81;98121.34;5050856;28;20083;-65
2021/12/07 11:02:17;;;;;;;71.68;29.95;;;;;;;0.47;76.30;98120.66;5040315;28;20100;-65
2021/12/07 11:04:44;;;;;;;67.10;30.35;;;;;;;0.49;76.12;98123.94;5050243;28;20028;-65
2021/12/07 11:07:12;;;;;;;68.28;31.30;;;;;;;0.53;75.83;98117.00;5042062;28;20041;-65
2021/12/07 11:09:43;;;;;;;60.97;25.50;;;;;;;0.63;76.22;98127.19;5031072;28;20390;-66
2021/12/07 11:12:12;;;;;;;58.33;25.25;;;;;;;0.62;75.92;98130.09;5029331;28;20478;-65
2021/12/07 11:14:49;;;;;;;57.72;25.95;;;;;;;0.61;75.82;98134.69;5038464;28;20033;-65
2021/12/07 11:17:17;;;;;;;98.72;38.33;;;;;;;0.63;75.70;98129.03;5037112;28;20041;-64
2021/12/07 11:19:42;;;;;;;97.75;36.53;;;;;;;0.63;75.44;98123.63;5042306;28;20029;-65
2021/12/07 11:22:11;;;;;;;80.82;30.77;;;;;;;0.62;75.66;98130.94;5046512;28;20028;-64
2021/12/07 11:24:39;;;;;;;82.28;31.15;;;;;;;0.66;75.76;98128.56;5029433;28;20105;-64
2021/12/07 11:30:16;;;;;;;85.60;31.20;;;;;;;0.77;75.42;98135.81;5046131;28;20048;-64
2021/12/07 11:32:55;;;;;;;83.32;34.83;;;;;;;0.77;76.20;98141.22;5062158;28;20500;-64
2021/12/07 11:35:33;;;;;;;104.55;37.97;;;;;;;0.73;75.86;98132.78;5046328;28;20060;-65
2021/12/07 11:38:03;;;;;;;100.82;36.92;;;;;;;0.70;75.53;98135.97;5046278;28;20128;-64
2021/12/07 11:40:38;;;;;;;99.63;40.92;;;;;;;0.68;75.37;98137.25;5046354;28;20668;-65
2021/12/07 11:43:19;;;;;;;105.78;35.78;;;;;;;0.66;75.71;98150.16;5048074;28;20043;-65
2021/12/07 11:45:45;;;;;;;87.88;32.75;;;;;;;0.67;75.93;98144.53;5032859;28;20060;-65
2021/12/07 11:48:12;;;;;;;101.65;36.50;;;;;;;0.68;75.36;98143.47;5048951;28;20515;-65
2021/12/07 11:50:39;;;;;;;98.18;35.83;;;;;;;0.67;75.07;98155.31;5048569;28;20083;-64
2021/12/07 11:53:25;;;;;;;111.47;37.53;;;;;;;0.64;75.23;98144.16;5049449;28;20718;-65
2021/12/07 11:55:54;;;;;;;113.35;37.30;;;;;;;0.67;75.76;98149.09;5050364;28;20110;-66
2021/12/07 11:58:20;;;;;;;82.87;29.67;;;;;;;0.70;75.52;98135.97;5047490;28;20507;-66
2021/12/07 12:00:49;;;;;;;214.43;70.80;;;;;;;0.71;75.59;98145.69;5048569;28;20287;-65
2021/12/07 12:03:18;;;;;;;525.35;166.32;;;;;;;0.67;75.28;98141.84;5049745;28;20029;-66
2021/12/07 12:05:46;;;;;;;507.08;155.45;;;;;;;0.64;75.18;98136.91;5042471;28;20083;-66
2021/12/07 12:08:14;;;;;;;446.08;156.48;;;;;;;0.62;75.43;98149.00;5034561;28;20034;-65
2021/12/07 12:10:47;;;;;;;255.45;88.75;;;;;;;0.58;75.37;98141.41;5028866;28;20026;-67
2021/12/07 12:13:21;;;;;;;200.18;82.93;;;;;;;0.59;75.62;98150.31;5036001;28;20040;-65
2021/12/07 12:16:25;;;;;;;288.27;122.45;;;;;;;0.55;75.08;98152.66;5030920;28;20037;-66
2021/12/07 12:19:23;;;;;;;574.47;275.05;;;;;;;0.51;75.46;98147.97;5027581;28;20034;-66
2021/12/07 12:22:24;;;;;;;268.73;102.03;;;;;;;0.47;75.36;98152.19;5029287;28;20045;-66
2021/12/07 12:24:55;;;;;;;234.52;68.25;;;;;;;0.48;75.18;98151.97;5048508;28;20073;-66
2021/12/07 12:27:27;;;;;;;339.50;94.85;;;;;;;0.49;75.63;98147.38;5047838;28;20466;-66
2021/12/07 12:29:55;;;;;;;565.80;166.20;;;;;;;0.43;75.57;98149.16;5049743;28;20035;-66
2021/12/07 12:32:36;;;;;;;350.25;90.63;;;;;;;0.40;75.66;98158.56;5049691;28;20570;-66
2021/12/07 12:35:04;;;;;;;297.35;79.35;;;;;;;0.38;75.21;98157.16;5050098;28;20021;-66
2021/12/07 12:37:31;;;;;;;267.67;74.38;;;;;;;0.37;75.77;98147.41;5049813;28;20047;-66
2021/12/07 12:39:59;;;;;;;285.60;84.53;;;;;;;0.36;75.54;98159.25;5049437;28;20033;-66
2021/12/07 12:42:45;;;;;;;310.55;89.55;;;;;;;0.38;75.41;98165.25;5048270;28;20095;-66
2021/12/07 12:45:24;;;;;;;228.55;63.20;;;;;;;0.37;75.73;98164.44;5050210;28;20282;-66
2021/12/07 12:48:09;;;;;;;226.02;58.72;;;;;;;0.34;76.11;98164.91;5049085;28;20041;-66
2021/12/07 12:50:41;;;;;;;216.73;62.13;;;;;;;0.31;75.69;98162.69;5049545;28;20055;-66
2021/12/07 12:53:12;;;;;;;188.73;55.67;;;;;;;0.29;75.93;98168.28;5049852;28;20036;-66